Time;durP1;ratioP1;P1;durP2;ratioP2;P2;SDS_P1;SDS_P2;PMS_P1;PMS_P2;Temp;Humidity;BMP_temperature;BMP_pressure;BME280_temperature;BME280_humidity;BME280_pressure;Samples;Min_cycle;Max_cycle;Signal;HPM_P1;HPM_P2
2023/11/15 00:00:06;;;;;;;2.47;1.60;;;;;;;6.76;100.00;92009.44;4947393;29;20034;-78
2023/11/15 00:02:35;;;;;;;3.58;1.70;;;;;;;6.75;100.00;91998.22;4952071;29;20500;-80
2023/11/15 00:05:02;;;;;;;3.38;1.80;;;;;;;6.77;100.00;92003.94;4955289;29;20126;-79
2023/11/15 00:07:29;;;;;;;2.67;1.65;;;;;;;6.76;100.00;91976.38;4952128;29;20031;-79
2023/11/15 00:09:54;;;;;;;2.40;1.58;;;;;;;6.75;100.00;92003.44;4955037;29;20062;-79
2023/11/15 00:12:20;;;;;;;3.28;1.90;;;;;;;7.00;100.00;91947.81;4952672;29;20031;-79
2023/11/15 00:14:46;;;;;;;3.08;1.67;;;;;;;7.00;100.00;92025.06;4932535;29;20512;-78
2023/11/15 00:17:12;;;;;;;2.33;1.40;;;;;;;6.93;100.00;91996.78;4952430;29;20034;-80
2023/11/15 00:19:38;;;;;;;2.85;1.60;;;;;;;6.83;100.00;91983.88;4940841;29;20492;-80
2023/11/15 00:22:04;;;;;;;2.88;1.60;;;;;;;6.82;100.00;92011.72;4950610;29;20106;-80
2023/11/15 00:24:30;;;;;;;2.83;1.60;;;;;;;6.79;100.00;91998.47;4954926;29;20553;-79
2023/11/15 00:26:57;;;;;;;1.73;1.33;;;;;;;6.75;100.00;91997.47;4940717;29;20020;-79
2023/11/15 00:29:24;;;;;;;2.35;1.38;;;;;;;6.73;100.00;92010.72;4936842;29;20050;-78
2023/11/15 00:31:50;;;;;;;3.00;1.52;;;;;;;6.74;100.00;92001.91;4953991;29;20043;-79
2023/11/15 00:34:16;;;;;;;2.92;1.73;;;;;;;6.72;100.00;92013.63;4937420;29;20407;-80
2023/11/15 00:36:45;;;;;;;2.42;1.58;;;;;;;6.71;100.00;92017.25;4936889;28;20059;-79
2023/11/15 00:39:11;;;;;;;3.20;1.52;;;;;;;6.51;100.00;91989.59;4935600;29;20044;-78
2023/11/15 00:41:37;;;;;;;2.83;1.42;;;;;;;6.66;100.00;92011.06;4938161;29;20071;-78
2023/11/15 00:44:06;;;;;;;2.88;1.70;;;;;;;6.68;100.00;92008.19;4936846;29;20083;-79
2023/11/15 00:46:36;;;;;;;3.22;1.80;;;;;;;6.65;100.00;92000.94;4947004;29;20557;-79
2023/11/15 00:49:04;;;;;;;2.65;1.60;;;;;;;6.62;100.00;92004.06;4951316;29;20039;-78
2023/11/15 00:51:30;;;;;;;2.92;1.70;;;;;;;6.61;100.00;92005.13;4954770;29;20035;-79
2023/11/15 00:53:55;;;;;;;2.35;1.50;;;;;;;6.57;100.00;92001.50;4935259;29;20045;-80
2023/11/15 00:56:21;;;;;;;2.72;1.75;;;;;;;6.51;100.00;92000.78;4946463;29;20440;-79
2023/11/15 00:58:47;;;;;;;3.38;1.83;;;;;;;6.53;100.00;92008.31;4959696;28;20066;-80
2023/11/15 01:01:12;;;;;;;3.75;2.03;;;;;;;6.58;100.00;92018.69;4955243;29;20522;-79
2023/11/15 01:03:45;;;;;;;4.82;1.73;;;;;;;6.56;100.00;92008.53;4952978;29;20340;-79
2023/11/15 01:06:13;;;;;;;2.97;1.77;;;;;;;6.57;100.00;92022.31;4934923;29;20062;-79
2023/11/15 01:08:39;;;;;;;4.47;2.03;;;;;;;6.53;100.00;92031.72;4950676;28;20039;-79
2023/11/15 01:11:05;;;;;;;3.13;1.65;;;;;;;6.50;100.00;92027.84;4935153;29;20035;-79
2023/11/15 01:13:32;;;;;;;3.33;1.90;;;;;;;6.45;100.00;92010.44;4953484;29;20026;-78
2023/11/15 01:15:59;;;;;;;2.40;1.58;;;;;;;6.45;100.00;92030.47;4929865;29;20519;-79
2023/11/15 01:18:25;;;;;;;3.05;1.80;;;;;;;6.40;100.00;92026.09;4953343;29;20031;-80
2023/11/15 01:20:51;;;;;;;2.80;1.60;;;;;;;6.40;100.00;92031.28;4936975;29;20118;-80
2023/11/15 01:23:17;;;;;;;2.53;1.58;;;;;;;6.39;100.00;92039.34;4953235;29;20027;-79
2023/11/15 01:25:43;;;;;;;2.72;1.70;;;;;;;6.38;100.00;92041.19;4932056;29;20509;-79
2023/11/15 01:28:09;;;;;;;2.97;1.67;;;;;;;6.37;100.00;92029.25;4952733;29;20023;-79
2023/11/15 01:30:34;;;;;;;2.45;1.50;;;;;;;6.39;100.00;92034.16;4951573;29;20415;-80
2023/11/15 01:33:00;;;;;;;3.10;1.58;;;;;;;6.38;100.00;92045.63;4933308;29;20908;-78
2023/11/15 01:35:26;;;;;;;2.80;1.50;;;;;;;6.38;100.00;92045.63;4953886;28;20059;-79
2023/11/15 01:37:53;;;;;;;3.28;1.52;;;;;;;6.37;100.00;92033.63;4937380;29;20139;-78
2023/11/15 01:40:20;;;;;;;2.55;1.40;;;;;;;6.40;100.00;92043.53;4937808;29;20093;-79
2023/11/15 01:42:49;;;;;;;3.20;1.30;;;;;;;6.37;100.00;92047.44;4937053;29;20031;-80
2023/11/15 01:45:16;;;;;;;2.97;1.40;;;;;;;6.39;100.00;92042.72;4951774;29;20118;-78
2023/11/15 01:47:42;;;;;;;2.83;1.45;;;;;;;6.42;100.00;92044.78;4957726;28;20043;-79
2023/11/15 01:50:13;;;;;;;2.13;1.40;;;;;;;6.43;100.00;92042.97;4935982;29;20043;-79
2023/11/15 01:52:44;;;;;;;2.25;1.33;;;;;;;6.37;100.00;92044.84;4918039;29;20047;-79
2023/11/15 01:55:14;;;;;;;2.63;1.50;;;;;;;6.33;100.00;92046.41;4933624;29;20031;-79
2023/11/15 01:57:40;;;;;;;1.80;1.40;;;;;;;6.30;100.00;92049.53;4946740;29;20558;-79
2023/11/15 02:00:10;;;;;;;1.98;1.50;;;;;;;6.22;100.00;92047.53;4937624;29;20117;-79
2023/11/15 02:02:41;;;;;;;1.75;1.30;;;;;;;6.24;100.00;92045.44;4946692;29;20039;-79
2023/11/15 02:05:08;;;;;;;1.90;1.40;;;;;;;6.21;100.00;92048.56;4936612;29;20042;-79
2023/11/15 02:07:34;;;;;;;1.42;1.13;;;;;;;6.18;100.00;92051.72;4952374;29;20043;-79
2023/11/15 02:10:01;;;;;;;1.23;1.13;;;;;;;6.16;100.00;92046.00;4936036;29;20409;-80
2023/11/15 02:12:27;;;;;;;1.17;1.00;;;;;;;6.14;100.00;92051.47;4953018;29;20033;-78
2023/11/15 02:14:53;;;;;;;1.48;0.90;;;;;;;6.16;100.00;92053.81;4934367;29;20118;-79
2023/11/15 02:17:19;;;;;;;1.00;0.90;;;;;;;6.13;100.00;92055.13;4953879;28;20035;-79
2023/11/15 02:19:45;;;;;;;0.98;0.90;;;;;;;6.17;100.00;92060.53;4934616;29;20039;-79
2023/11/15 02:22:10;;;;;;;2.70;0.80;;;;;;;6.15;100.00;92066.03;4952101;29;20038;-79
2023/11/15 02:24:37;;;;;;;0.82;0.82;;;;;;;6.16;100.00;92069.41;4953526;29;20513;-78
2023/11/15 02:27:03;;;;;;;0.80;0.80;;;;;;;6.17;100.00;92076.13;4935681;29;20043;-78
2023/11/15 02:29:29;;;;;;;0.85;0.85;;;;;;;6.16;100.00;92079.78;4950044;29;20054;-79
2023/11/15 02:31:54;;;;;;;0.80;0.80;;;;;;;6.24;100.00;92081.84;4934168;29;20027;-78
2023/11/15 02:34:20;;;;;;;2.65;1.00;;;;;;;6.31;100.00;92081.53;4934760;29;20043;-79
2023/11/15 02:36:46;;;;;;;0.93;0.80;;;;;;;6.35;100.00;92080.72;4934897;29;20527;-79
2023/11/15 02:39:13;;;;;;;0.50;0.50;;;;;;;6.37;100.00;92078.63;4945083;29;20035;-80
2023/11/15 02:41:40;;;;;;;1.02;0.90;;;;;;;6.38;100.00;92085.38;4952397;29;20023;-79
2023/11/15 02:44:06;;;;;;;0.80;0.80;;;;;;;6.41;100.00;92084.81;4936261;29;20040;-79
2023/11/15 02:46:32;;;;;;;1.27;0.93;;;;;;;6.43;100.00;92092.38;4931844;29;20032;-78
2023/11/15 02:48:58;;;;;;;0.60;0.60;;;;;;;6.44;100.00;92092.09;4940520;29;20048;-79
2023/11/15 02:51:23;;;;;;;0.70;0.70;;;;;;;6.51;100.00;92096.22;4948793;29;20038;-79
2023/11/15 02:53:49;;;;;;;1.23;0.73;;;;;;;6.56;100.00;92101.41;4951441;28;20043;-78
2023/11/15 02:56:15;;;;;;;1.05;0.70;;;;;;;6.56;100.00;92101.41;4931338;29;20094;-77
2023/11/15 02:58:41;;;;;;;0.82;0.80;;;;;;;6.56;100.00;92098.81;4928974;29;20046;-79
2023/11/15 03:01:07;;;;;;;0.68;0.68;;;;;;;6.53;100.00;92099.31;4952618;29;20031;-78
2023/11/15 03:03:36;;;;;;;0.73;0.60;;;;;;;6.52;100.00;92103.75;4956409;29;20527;-78
2023/11/15 03:06:03;;;;;;;0.68;0.68;;;;;;;6.50;100.00;92105.06;4939079;29;20507;-78
2023/11/15 03:08:30;;;;;;;0.60;0.60;;;;;;;6.49;100.00;92108.72;4936795;29;20037;-79
2023/11/15 03:10:57;;;;;;;0.70;0.70;;;;;;;6.44;100.00;92112.91;4944296;28;20043;-79
2023/11/15 03:13:22;;;;;;;0.70;0.70;;;;;;;6.41;100.00;92123.06;4939344;29;20115;-79
2023/11/15 03:15:50;;;;;;;0.70;0.70;;;;;;;6.39;100.00;92120.72;4935230;29;20075;-78
2023/11/15 03:18:16;;;;;;;0.90;0.40;;;;;;;6.37;100.00;92128.03;4931541;29;20046;-79
2023/11/15 03:20:42;;;;;;;0.77;0.77;;;;;;;6.42;100.00;92128.00;4938535;29;20423;-78
2023/11/15 03:23:09;;;;;;;0.77;0.73;;;;;;;6.44;100.00;92133.72;4938501;29;20039;-78
2023/11/15 03:25:36;;;;;;;0.75;0.70;;;;;;;6.47;100.00;92138.38;4948568;29;20043;-79
2023/11/15 03:28:03;;;;;;;0.70;0.70;;;;;;;6.61;100.00;92146.34;4946910;29;20459;-79
2023/11/15 03:30:31;;;;;;;0.60;0.60;;;;;;;6.76;100.00;92149.91;4947184;29;20035;-79
2023/11/15 03:32:56;;;;;;;0.80;0.80;;;;;;;6.80;100.00;92146.50;4948086;29;20078;-79
2023/11/15 03:35:22;;;;;;;0.70;0.70;;;;;;;6.86;100.00;92148.00;4945583;29;20471;-78
2023/11/15 03:37:49;;;;;;;0.77;0.77;;;;;;;6.87;100.00;92149.56;4942745;29;20070;-79
2023/11/15 03:40:15;;;;;;;0.60;0.60;;;;;;;6.82;100.00;92144.41;4952266;29;20047;-79
2023/11/15 03:42:41;;;;;;;0.82;0.82;;;;;;;6.73;100.00;92140.03;4937683;29;20040;-79
2023/11/15 03:45:09;;;;;;;0.75;0.75;;;;;;;6.74;100.00;92147.56;4955886;29;20110;-79
2023/11/15 03:47:36;;;;;;;0.50;0.50;;;;;;;6.68;100.00;92149.41;4938599;29;20074;-78
2023/11/15 03:50:04;;;;;;;0.50;0.50;;;;;;;6.62;100.00;92141.91;4951944;29;20042;-78
2023/11/15 03:52:30;;;;;;;0.75;0.75;;;;;;;6.60;100.00;92152.59;4954797;29;20043;-79
2023/11/15 03:54:56;;;;;;;0.70;0.70;;;;;;;6.55;100.00;92147.44;4919710;29;20028;-79
2023/11/15 03:57:22;;;;;;;1.38;0.47;;;;;;;6.56;100.00;92163.81;4935907;29;20519;-79
2023/11/15 03:59:48;;;;;;;0.65;0.65;;;;;;;6.52;100.00;92171.38;4955200;29;20035;-78
2023/11/15 04:02:15;;;;;;;0.70;0.70;;;;;;;6.55;100.00;92170.03;4935031;29;20491;-79
2023/11/15 04:04:41;;;;;;;0.70;0.70;;;;;;;6.53;100.00;92162.53;4923231;29;20082;-79
2023/11/15 04:07:07;;;;;;;0.73;0.73;;;;;;;6.50;100.00;92170.09;4934310;29;20587;-78
2023/11/15 04:09:34;;;;;;;0.57;0.57;;;;;;;6.51;100.00;92169.03;4952819;29;20059;-79
2023/11/15 04:11:59;;;;;;;0.65;0.57;;;;;;;6.52;100.00;92157.59;4948124;28;20031;-78
2023/11/15 04:14:25;;;;;;;0.60;0.60;;;;;;;6.51;100.00;92156.81;4934662;29;20059;-79
2023/11/15 04:16:53;;;;;;;0.60;0.60;;;;;;;6.50;100.00;92162.28;4944013;29;20038;-79
2023/11/15 04:19:21;;;;;;;0.60;0.60;;;;;;;6.51;100.00;92169.03;4956020;28;20043;-79
2023/11/15 04:21:51;;;;;;;0.73;0.63;;;;;;;6.50;100.00;92168.25;4953424;29;20046;-79
2023/11/15 04:24:17;;;;;;;0.40;0.40;;;;;;;6.49;100.00;92176.34;4955189;29;20407;-79
2023/11/15 04:26:46;;;;;;;0.80;0.55;;;;;;;6.44;100.00;92174.53;4950329;29;20041;-79
2023/11/15 04:29:12;;;;;;;0.60;0.60;;;;;;;6.46;100.00;92188.81;4953055;29;20089;-79
2023/11/15 04:31:38;;;;;;;1.20;0.70;;;;;;;6.44;100.00;92190.16;4945270;29;20035;-79
2023/11/15 04:34:05;;;;;;;0.50;0.50;;;;;;;6.42;100.00;92187.03;4930051;29;20043;-79
2023/11/15 04:36:35;;;;;;;0.60;0.60;;;;;;;6.41;100.00;92193.25;4954794;29;20537;-79
2023/11/15 04:39:06;;;;;;;0.50;0.50;;;;;;;6.37;100.00;92194.84;4954962;29;20099;-79
2023/11/15 04:41:32;;;;;;;0.55;0.55;;;;;;;6.37;100.00;92200.84;4955366;29;20035;-79
2023/11/15 04:43:58;;;;;;;0.45;0.45;;;;;;;6.35;100.00;92197.72;4945020;29;20090;-79
2023/11/15 04:46:23;;;;;;;0.43;0.43;;;;;;;6.33;100.00;92197.19;4952864;29;20507;-79
2023/11/15 04:48:49;;;;;;;0.75;0.70;;;;;;;6.33;100.00;92212.81;4921855;29;20407;-79
2023/11/15 04:51:15;;;;;;;0.70;0.70;;;;;;;6.32;100.00;92219.03;4955482;29;20483;-79
2023/11/15 04:53:40;;;;;;;0.60;0.60;;;;;;;6.32;100.00;92219.03;4954218;29;20035;-79
2023/11/15 04:56:06;;;;;;;0.70;0.70;;;;;;;6.30;100.00;92215.91;4955236;29;20067;-78
2023/11/15 04:58:32;;;;;;;1.77;0.50;;;;;;;6.28;100.00;92217.22;4951204;28;20500;-79
2023/11/15 05:00:59;;;;;;;0.65;0.65;;;;;;;6.30;99.25;92215.91;4945440;29;20023;-78
2023/11/15 05:03:25;;;;;;;0.47;0.47;;;;;;;6.33;99.72;92214.63;4952476;29;20035;-78
2023/11/15 05:05:52;;;;;;;0.82;0.70;;;;;;;6.36;98.87;92216.69;4932019;29;20569;-79
2023/11/15 05:08:17;;;;;;;0.50;0.50;;;;;;;6.34;100.00;92216.94;4936819;29;20028;-79
2023/11/15 05:10:43;;;;;;;0.57;0.57;;;;;;;6.35;100.00;92220.31;4950733;28;20105;-79
2023/11/15 05:13:09;;;;;;;0.68;0.68;;;;;;;6.32;100.00;92224.22;4957264;28;20503;-80
2023/11/15 05:15:34;;;;;;;0.45;0.45;;;;;;;6.29;99.37;92224.00;4950308;29;20027;-78
2023/11/15 05:18:00;;;;;;;0.50;0.50;;;;;;;6.28;98.81;92227.63;4947545;29;20051;-79
2023/11/15 05:20:27;;;;;;;0.60;0.60;;;;;;;6.28;96.51;92236.19;4937770;29;20070;-78
2023/11/15 05:22:54;;;;;;;0.70;0.70;;;;;;;6.25;97.79;92245.31;4952450;28;20031;-78
2023/11/15 05:25:21;;;;;;;0.73;0.70;;;;;;;6.23;97.52;92251.81;4952635;29;20059;-79
2023/11/15 05:27:47;;;;;;;0.50;0.50;;;;;;;6.22;96.66;92245.84;4936634;29;20043;-79
2023/11/15 05:30:15;;;;;;;0.85;0.60;;;;;;;6.22;97.65;92263.28;4919483;29;20075;-79
2023/11/15 05:32:40;;;;;;;0.70;0.70;;;;;;;6.22;95.85;92265.88;4944604;29;20042;-79
2023/11/15 05:35:10;;;;;;;1.83;0.70;;;;;;;6.19;98.12;92267.19;4947692;29;20742;-79
2023/11/15 05:37:37;;;;;;;0.68;0.68;;;;;;;6.20;99.63;92267.94;4920120;29;20069;-79
2023/11/15 05:40:03;;;;;;;0.63;0.63;;;;;;;6.15;99.46;92271.34;4949627;28;20059;-79
2023/11/15 05:42:29;;;;;;;0.85;0.60;;;;;;;6.17;100.00;92265.84;4932988;29;20039;-79
2023/11/15 05:44:55;;;;;;;0.70;0.70;;;;;;;6.20;96.55;92267.94;4950880;29;20039;-77
2023/11/15 05:47:21;;;;;;;0.55;0.55;;;;;;;6.28;93.93;92275.19;4953689;28;20039;-80
2023/11/15 05:49:47;;;;;;;0.60;0.60;;;;;;;6.43;90.76;92275.16;4954352;29;20054;-77
2023/11/15 05:52:14;;;;;;;0.70;0.70;;;;;;;6.62;87.70;92277.16;4949922;29;20047;-80
2023/11/15 05:54:40;;;;;;;0.60;0.60;;;;;;;6.88;85.95;92291.63;4948986;29;20030;-80
2023/11/15 05:57:06;;;;;;;0.60;0.60;;;;;;;7.09;83.75;92291.50;4948151;28;20111;-80
2023/11/15 05:59:31;;;;;;;0.70;0.70;;;;;;;7.27;83.13;92290.91;4947829;29;20047;-80
2023/11/15 06:01:57;;;;;;;0.50;0.50;;;;;;;7.43;81.55;92301.19;4952489;28;20114;-79
2023/11/15 06:04:26;;;;;;;0.70;0.70;;;;;;;7.56;80.41;92297.22;4950450;29;20031;-80
2023/11/15 06:06:51;;;;;;;0.57;0.57;;;;;;;7.67;78.31;92294.25;4951616;28;20039;-80
2023/11/15 06:09:17;;;;;;;0.52;0.50;;;;;;;7.78;79.62;92305.41;4964260;28;20458;-80
2023/11/15 06:11:44;;;;;;;0.80;0.80;;;;;;;7.80;79.20;92305.13;4945867;29;20031;-80
2023/11/15 06:14:14;;;;;;;0.65;0.52;;;;;;;7.87;78.13;92316.00;4937631;29;20384;-80
2023/11/15 06:16:40;;;;;;;0.57;0.57;;;;;;;7.92;77.11;92311.56;4954328;29;20047;-82
2023/11/15 06:19:07;;;;;;;0.70;0.70;;;;;;;8.06;74.05;92329.94;4933243;29;20492;-80
2023/11/15 06:21:34;;;;;;;0.57;0.57;;;;;;;8.22;71.87;92329.78;4954459;29;20031;-80
2023/11/15 06:24:00;;;;;;;0.40;0.40;;;;;;;8.29;72.45;92335.47;4953690;29;20118;-80
2023/11/15 06:26:25;;;;;;;0.50;0.50;;;;;;;8.37;71.67;92331.47;4936845;29;20448;-80
2023/11/15 06:28:51;;;;;;;0.60;0.60;;;;;;;8.40;71.23;92342.19;4953798;29;20063;-80
2023/11/15 06:31:20;;;;;;;0.60;0.60;;;;;;;8.37;72.71;92347.13;4945535;29;20027;-80
2023/11/15 06:33:46;;;;;;;0.50;0.50;;;;;;;8.41;73.07;92356.00;4936357;28;20035;-78
2023/11/15 06:36:12;;;;;;;0.50;0.50;;;;;;;8.43;71.91;92346.84;4956533;29;20487;-79
2023/11/15 06:38:37;;;;;;;0.55;0.55;;;;;;;8.55;70.81;92338.63;4939855;29;20043;-78
2023/11/15 06:41:08;;;;;;;0.60;0.60;;;;;;;8.57;70.48;92340.97;4957691;29;20246;-79
2023/11/15 06:43:35;;;;;;;0.60;0.60;;;;;;;8.64;69.62;92344.03;4957693;29;20287;-79
2023/11/15 06:46:00;;;;;;;0.60;0.60;;;;;;;8.81;69.03;92344.38;4941474;29;20058;-80
2023/11/15 06:48:26;;;;;;;0.70;0.70;;;;;;;9.97;68.10;92360.63;4956655;28;20047;-79
2023/11/15 06:50:52;;;;;;;0.70;0.70;;;;;;;11.20;65.15;92354.06;4940034;29;20039;-80
2023/11/15 06:53:18;;;;;;;0.70;0.70;;;;;;;12.35;59.89;92359.22;4956594;29;20045;-79
2023/11/15 06:55:46;;;;;;;0.50;0.50;;;;;;;13.40;55.17;92345.47;4924131;29;20058;-79
2023/11/15 06:58:15;;;;;;;0.85;0.60;;;;;;;14.35;51.72;92349.97;4956964;29;20109;-79
2023/11/15 07:00:44;;;;;;;0.52;0.52;;;;;;;15.22;45.17;92358.75;4940869;29;20094;-79
2023/11/15 07:03:13;;;;;;;0.60;0.60;;;;;;;16.20;43.26;92354.13;4956807;29;20086;-79
2023/11/15 07:05:42;;;;;;;0.50;0.50;;;;;;;16.94;40.73;92352.50;4955986;29;20031;-78
2023/11/15 07:08:09;;;;;;;0.95;0.40;;;;;;;17.48;38.07;92351.53;4938769;29;20093;-78
2023/11/15 07:10:35;;;;;;;0.47;0.47;;;;;;;18.22;37.31;92359.38;4955264;29;20404;-78
2023/11/15 07:13:01;;;;;;;0.50;0.50;;;;;;;18.71;34.25;92353.84;4955661;29;20114;-78
2023/11/15 07:15:26;;;;;;;0.73;0.50;;;;;;;19.33;31.14;92355.03;4939176;29;20440;-78
2023/11/15 07:17:54;;;;;;;0.50;0.50;;;;;;;19.91;32.73;92361.69;4938603;29;20043;-79
2023/11/15 07:20:21;;;;;;;0.40;0.40;;;;;;;20.75;33.75;92368.31;4960032;28;20035;-78
2023/11/15 07:22:47;;;;;;;0.73;0.70;;;;;;;21.40;31.48;92376.31;4951379;29;20221;-79
2023/11/15 07:25:14;;;;;;;0.50;0.50;;;;;;;22.08;28.47;92376.56;4920632;29;20093;-77
2023/11/15 07:27:39;;;;;;;0.57;0.57;;;;;;;22.30;27.91;92382.22;4955371;29;20048;-76
2023/11/15 07:30:08;;;;;;;0.50;0.50;;;;;;;22.58;27.50;92377.19;4955636;29;20031;-79
2023/11/15 07:32:34;;;;;;;0.50;0.50;;;;;;;23.11;24.89;92386.97;4957389;29;20035;-79
2023/11/15 07:34:59;;;;;;;0.90;0.50;;;;;;;23.16;24.48;92383.19;4955370;29;20055;-78
2023/11/15 07:37:25;;;;;;;0.50;0.50;;;;;;;23.26;25.19;92382.53;4954550;29;20050;-77
2023/11/15 07:39:50;;;;;;;0.50;0.50;;;;;;;23.85;24.52;92388.75;4953274;29;20511;-79
2023/11/15 07:42:17;;;;;;;0.60;0.60;;;;;;;24.23;23.44;92385.94;4956469;29;20027;-77
2023/11/15 07:44:43;;;;;;;0.50;0.50;;;;;;;24.91;22.30;92388.94;4954030;29;20034;-78
2023/11/15 07:47:10;;;;;;;0.55;0.55;;;;;;;24.82;22.03;92385.84;4939145;29;20114;-78
2023/11/15 07:49:36;;;;;;;0.60;0.60;;;;;;;25.09;21.75;92389.00;4955917;29;20031;-78
2023/11/15 07:52:02;;;;;;;0.80;0.80;;;;;;;25.65;21.52;92386.78;4955411;29;20035;-79
2023/11/15 07:54:28;;;;;;;0.60;0.60;;;;;;;25.61;21.24;92389.47;4955531;29;20082;-79
2023/11/15 07:56:53;;;;;;;0.63;0.63;;;;;;;25.33;21.06;92382.16;4955274;28;20054;-77
2023/11/15 07:59:21;;;;;;;0.68;0.68;;;;;;;26.59;19.91;92388.22;4955442;29;20035;-77
2023/11/15 08:01:48;;;;;;;1.33;0.70;;;;;;;26.07;20.32;92388.69;4954979;29;20046;-78
2023/11/15 08:04:15;;;;;;;0.65;0.65;;;;;;;26.62;19.51;92398.19;4954967;29;20435;-78
2023/11/15 08:06:42;;;;;;;0.70;0.70;;;;;;;26.32;19.42;92410.13;4938139;29;20043;-78
2023/11/15 08:09:07;;;;;;;0.60;0.60;;;;;;;26.51;20.17;92410.84;4954973;29;20039;-77
2023/11/15 08:11:34;;;;;;;0.60;0.60;;;;;;;26.73;19.02;92409.66;4938884;29;20123;-78
2023/11/15 08:14:02;;;;;;;0.70;0.70;;;;;;;27.28;18.28;92410.97;4955003;29;20140;-78
2023/11/15 08:16:30;;;;;;;0.70;0.70;;;;;;;27.19;19.14;92403.28;4938016;28;20050;-78
2023/11/15 08:18:56;;;;;;;0.70;0.70;;;;;;;27.26;18.56;92429.38;4954257;29;20041;-78
2023/11/15 08:21:22;;;;;;;0.70;0.70;;;;;;;28.25;17.50;92415.63;4954539;29;20499;-78
2023/11/15 08:23:47;;;;;;;0.60;0.60;;;;;;;27.55;17.61;92421.91;4937367;29;20038;-78
2023/11/15 08:26:20;;;;;;;0.70;0.70;;;;;;;27.65;18.64;92428.41;4954520;29;20581;-78
2023/11/15 08:28:47;;;;;;;0.47;0.47;;;;;;;27.69;18.48;92431.81;4936702;29;20078;-78
2023/11/15 08:31:16;;;;;;;0.65;0.52;;;;;;;26.88;18.48;92439.88;4954676;29;20102;-78
2023/11/15 08:33:44;;;;;;;0.52;0.52;;;;;;;26.62;18.65;92426.97;4952952;29;20399;-76
2023/11/15 08:36:12;;;;;;;0.50;0.50;;;;;;;26.20;19.53;92436.59;4952145;29;20468;-78
2023/11/15 08:38:38;;;;;;;0.50;0.50;;;;;;;25.50;20.39;92435.00;4953301;29;20031;-77
2023/11/15 08:41:04;;;;;;;0.38;0.38;;;;;;;24.59;20.67;92435.09;4952195;29;20047;-77
2023/11/15 08:43:29;;;;;;;0.40;0.40;;;;;;;24.15;21.81;92443.94;4952181;29;20029;-76
2023/11/15 08:45:57;;;;;;;0.40;0.40;;;;;;;24.07;21.32;92445.03;4951340;29;20463;-77
2023/11/15 08:48:23;;;;;;;0.32;0.32;;;;;;;23.13;21.20;92440.75;4934646;29;20039;-77
2023/11/15 08:50:49;;;;;;;0.40;0.40;;;;;;;23.01;22.42;92449.00;4952340;29;20039;-77
2023/11/15 08:53:17;;;;;;;0.40;0.40;;;;;;;22.70;23.17;92453.59;4950618;29;20023;-77
2023/11/15 08:55:48;;;;;;;0.50;0.50;;;;;;;22.41;23.67;92457.78;4944686;29;20071;-77
2023/11/15 08:58:14;;;;;;;0.30;0.30;;;;;;;22.94;22.19;92454.22;4934604;29;20515;-77
2023/11/15 09:00:40;;;;;;;0.40;0.40;;;;;;;22.97;22.02;92456.19;4955207;29;20274;-83
2023/11/15 09:03:06;;;;;;;0.30;0.30;;;;;;;22.15;23.11;92459.28;4944083;29;20031;-82
2023/11/15 09:05:33;;;;;;;0.40;0.40;;;;;;;21.78;24.04;92462.53;4962003;29;20031;-81
2023/11/15 09:08:02;;;;;;;1.05;0.47;;;;;;;21.46;24.34;92463.88;4948996;29;20053;-84
2023/11/15 09:10:28;;;;;;;0.88;0.40;;;;;;;21.26;24.32;92466.56;4961773;29;20039;-84
2023/11/15 09:12:58;;;;;;;0.40;0.40;;;;;;;21.34;24.25;92470.13;4945130;29;20039;-84
2023/11/15 09:15:26;;;;;;;0.38;0.38;;;;;;;20.65;24.56;92480.56;4961263;29;20400;-81
2023/11/15 09:17:54;;;;;;;0.20;0.20;;;;;;;18.80;25.67;92481.81;4948766;29;20604;-82
2023/11/15 09:20:25;;;;;;;0.30;0.30;;;;;;;19.28;27.37;92487.22;4947731;29;20114;-82
2023/11/15 09:22:55;;;;;;;0.30;0.30;;;;;;;19.68;26.52;92489.75;4966505;29;20042;-85
2023/11/15 09:25:24;;;;;;;0.30;0.30;;;;;;;19.49;26.91;92493.06;4964647;29;20402;-83
2023/11/15 09:27:52;;;;;;;0.30;0.30;;;;;;;19.68;26.47;92500.38;4963506;29;20103;-82
2023/11/15 09:30:18;;;;;;;0.38;0.38;;;;;;;19.72;27.47;92506.59;4964065;29;20031;-83
2023/11/15 09:32:47;;;;;;;0.20;0.20;;;;;;;19.43;26.70;92501.63;4963752;29;20533;-82
2023/11/15 09:35:13;;;;;;;0.20;0.20;;;;;;;19.30;27.38;92501.69;4960420;29;20051;-82
2023/11/15 09:37:39;;;;;;;0.20;0.20;;;;;;;19.43;27.29;92507.72;4944136;29;20035;-82
2023/11/15 09:40:11;;;;;;;0.40;0.40;;;;;;;19.53;27.84;92519.72;4945378;29;20035;-84
2023/11/15 09:42:42;;;;;;;0.30;0.30;;;;;;;19.48;26.52;92520.75;4962751;29;20159;-84
2023/11/15 09:45:20;;;;;;;0.32;0.32;;;;;;;19.43;27.09;92520.22;4960195;29;20089;-82
2023/11/15 09:47:47;;;;;;;0.30;0.30;;;;;;;19.34;28.29;92530.97;4952740;28;20036;-84
2023/11/15 09:50:22;;;;;;;0.30;0.30;;;;;;;19.07;27.08;92528.00;4960459;28;20111;-86
2023/11/15 09:52:53;;;;;;;2.20;0.57;;;;;;;19.25;29.10;92536.44;4963125;29;20039;-83
2023/11/15 09:55:21;;;;;;;0.27;0.27;;;;;;;19.05;27.76;92537.38;4961124;29;20511;-82
2023/11/15 09:57:48;;;;;;;0.22;0.22;;;;;;;19.01;27.71;92541.84;4958594;29;20043;-84
2023/11/15 10:00:19;;;;;;;0.30;0.30;;;;;;;18.85;27.42;92537.25;4949866;29;20055;-84
2023/11/15 10:02:45;;;;;;;0.40;0.40;;;;;;;18.80;28.76;92547.31;4963773;29;20046;-84
2023/11/15 10:05:19;;;;;;;0.30;0.30;;;;;;;18.80;28.93;92542.78;4955129;29;20027;-85
2023/11/15 10:07:47;;;;;;;0.30;0.30;;;;;;;18.63;28.12;92538.47;4958677;28;20043;-83
2023/11/15 10:10:20;;;;;;;0.20;0.20;;;;;;;18.48;28.66;92555.06;4967530;28;20037;-81
2023/11/15 10:12:50;;;;;;;0.30;0.30;;;;;;;18.63;28.73;92543.00;4933477;29;20040;-81
2023/11/15 10:15:36;;;;;;;0.30;0.30;;;;;;;18.74;29.37;92552.06;4951957;29;20043;-81
2023/11/15 10:18:03;;;;;;;0.30;0.30;;;;;;;18.76;29.33;92547.19;4968345;29;20528;-83
2023/11/15 10:20:30;;;;;;;0.40;0.40;;;;;;;18.73;29.10;92558.44;4966022;28;20491;-82
2023/11/15 10:22:57;;;;;;;0.22;0.22;;;;;;;18.83;29.34;92560.69;4970261;29;20141;-81
2023/11/15 10:25:26;;;;;;;0.20;0.20;;;;;;;18.70;29.46;92559.13;4967896;29;20345;-82
2023/11/15 10:28:04;;;;;;;0.30;0.30;;;;;;;18.81;29.07;92565.53;4968242;28;20028;-81
2023/11/15 10:30:29;;;;;;;0.30;0.30;;;;;;;19.09;29.24;92554.19;4968438;29;20046;-81
2023/11/15 10:33:13;;;;;;;0.30;0.30;;;;;;;18.54;27.91;92547.66;4969997;29;20031;-82
2023/11/15 10:35:40;;;;;;;0.30;0.30;;;;;;;18.65;28.85;92546.09;4968479;29;20047;-83
2023/11/15 10:38:14;;;;;;;0.50;0.50;;;;;;;18.62;28.83;92552.06;4970219;29;20031;-80
2023/11/15 10:40:46;;;;;;;0.30;0.30;;;;;;;18.61;28.14;92540.69;4973491;29;20216;-80
2023/11/15 10:43:20;;;;;;;0.30;0.30;;;;;;;18.66;28.77;92545.00;4973515;29;20046;-80
2023/11/15 10:45:46;;;;;;;0.30;0.30;;;;;;;18.54;28.77;92523.81;4973334;29;20074;-79
2023/11/15 10:48:17;;;;;;;0.30;0.30;;;;;;;18.72;28.41;92541.00;4956499;29;20059;-80
2023/11/15 10:51:06;;;;;;;0.40;0.40;;;;;;;18.78;28.39;92531.75;4973019;29;20067;-80
2023/11/15 10:53:34;;;;;;;0.30;0.30;;;;;;;18.64;28.76;92541.91;4973148;29;20138;-80
2023/11/15 10:56:03;;;;;;;0.40;0.40;;;;;;;18.87;29.46;92544.88;4973084;29;20027;-80
2023/11/15 10:58:31;;;;;;;0.30;0.30;;;;;;;19.02;26.41;92541.50;4973327;29;20046;-80
2023/11/15 11:00:56;;;;;;;0.38;0.38;;;;;;;18.98;26.60;92545.16;4972919;29;20054;-81
2023/11/15 11:03:25;;;;;;;0.30;0.30;;;;;;;19.09;28.62;92549.69;4972609;29;20020;-80
2023/11/15 11:06:03;;;;;;;0.30;0.30;;;;;;;19.28;27.96;92553.56;4971809;29;20039;-81
2023/11/15 11:08:29;;;;;;;0.57;0.57;;;;;;;19.38;28.24;92549.66;4955960;29;20062;-80
2023/11/15 11:11:28;;;;;;;0.30;0.30;;;;;;;19.27;28.39;92558.13;4971985;29;20058;-80
2023/11/15 11:14:13;;;;;;;0.38;0.38;;;;;;;19.09;28.61;92546.22;4971857;29;20155;-81
2023/11/15 11:16:40;;;;;;;0.28;0.28;;;;;;;19.06;27.92;92545.03;4972608;29;20058;-81
2023/11/15 11:19:16;;;;;;;0.40;0.40;;;;;;;19.17;30.33;92550.63;4972510;29;20031;-80
2023/11/15 11:24:34;;;;;;;0.40;0.40;;;;;;;19.79;27.78;92540.50;4972938;29;20050;-80
2023/11/15 11:27:16;;;;;;;0.40;0.40;;;;;;;20.15;28.04;92547.47;4972436;28;20035;-81
2023/11/15 11:29:51;;;;;;;0.50;0.50;;;;;;;19.73;25.72;92550.59;4954429;29;20046;-80
2023/11/15 11:32:20;;;;;;;0.30;0.30;;;;;;;18.66;28.04;92537.81;4972177;29;20503;-80
2023/11/15 11:35:01;;;;;;;0.20;0.20;;;;;;;19.11;29.43;92546.66;4955026;29;20039;-81
2023/11/15 11:37:53;;;;;;;0.30;0.30;;;;;;;19.68;28.08;92545.53;4954614;29;20039;-81